createdAt,value
2023-05-08T02:58:22.129Z,9.59
2023-05-08T03:01:32.926Z,9.51
2023-05-08T03:04:43.964Z,9.56
2023-05-08T03:07:54.558Z,9.54
2023-05-08T03:11:01.698Z,9.47
2023-05-08T03:14:08.657Z,9.32
2023-05-08T03:17:16.628Z,9.32
2023-05-08T03:20:21.788Z,9.39
2023-05-08T03:23:29.670Z,9.30
2023-05-08T03:26:33.216Z,9.31
2023-05-08T03:29:42.818Z,9.40
2023-05-08T03:32:49.520Z,9.38
2023-05-08T03:35:55.772Z,9.36
2023-05-08T03:39:07.604Z,9.40
2023-05-08T03:42:10.830Z,9.59
2023-05-08T03:45:18.554Z,9.63
2023-05-08T03:48:23.925Z,9.67
2023-05-08T03:51:38.320Z,9.84
2023-05-08T03:54:43.821Z,9.89
2023-05-08T03:57:55.684Z,10.00
2023-05-08T04:01:04.786Z,10.09
2023-05-08T04:04:12.409Z,10.06
2023-05-08T04:07:25.722Z,10.25
2023-05-08T04:10:35.238Z,10.24
2023-05-08T04:13:48.495Z,10.18
2023-05-08T04:17:00.011Z,10.15
2023-05-08T04:20:09.981Z,10.20
2023-05-08T04:23:24.349Z,10.38
2023-05-08T04:26:28.874Z,10.42
2023-05-08T04:29:35.038Z,10.56
2023-05-08T04:32:44.137Z,10.61
2023-05-08T04:35:54.003Z,10.61
2023-05-08T04:38:57.725Z,10.51
2023-05-08T04:42:04.460Z,10.51
2023-05-08T04:45:08.725Z,10.60
2023-05-08T04:48:11.568Z,10.66
2023-05-08T04:51:18.231Z,10.84
2023-05-08T04:54:21.442Z,10.68
2023-05-08T04:57:28.816Z,10.62
2023-05-08T05:00:31.789Z,10.65
2023-05-08T05:03:34.885Z,10.69
2023-05-08T05:06:41.480Z,10.66
2023-05-08T05:09:56.683Z,10.64
2023-05-08T05:13:00.703Z,10.66
2023-05-08T05:16:07.660Z,10.78
2023-05-08T05:19:15.899Z,10.82
2023-05-08T05:22:24.343Z,10.87
2023-05-08T05:25:30.062Z,10.80
2023-05-08T05:28:33.308Z,10.81
2023-05-08T05:31:44.973Z,10.80
2023-05-08T05:34:56.104Z,10.84
2023-05-08T05:38:05.703Z,10.87
2023-05-08T05:41:09.375Z,10.80
2023-05-08T05:44:14.336Z,10.84
2023-05-08T05:47:22.982Z,10.91
2023-05-08T05:50:30.013Z,10.92
2023-05-08T05:53:36.105Z,10.78
2023-05-08T05:56:39.066Z,10.76
2023-05-08T05:59:48.001Z,10.82
2023-05-08T06:02:57.151Z,10.95
2023-05-08T06:06:01.449Z,11.06
2023-05-08T06:09:09.176Z,11.03
2023-05-08T06:12:21.492Z,10.99
2023-05-08T06:15:25.046Z,11.07
2023-05-08T06:18:35.131Z,11.18
2023-05-08T06:21:40.800Z,11.13
2023-05-08T06:24:48.932Z,11.35
2023-05-08T06:27:53.638Z,11.28
2023-05-08T06:30:57.843Z,11.50
2023-05-08T06:34:01.362Z,11.86
2023-05-08T06:37:09.589Z,11.87
2023-05-08T06:40:18.754Z,11.90
2023-05-08T06:43:23.550Z,12.01
2023-05-08T06:46:27.231Z,12.19
2023-05-08T06:49:31.377Z,12.34
2023-05-08T06:52:34.136Z,12.16
2023-05-08T06:55:41.179Z,12.26
2023-05-08T06:58:48.336Z,12.36
2023-05-08T07:02:04.153Z,12.66
2023-05-08T07:05:11.229Z,12.96
2023-05-08T07:08:21.487Z,13.06
2023-05-08T07:11:31.983Z,13.37
2023-05-08T07:14:36.407Z,13.27
2023-05-08T07:17:40.994Z,14.50
2023-05-08T07:20:44.882Z,14.83
2023-05-08T07:23:51.617Z,15.10
2023-05-08T07:26:54.588Z,16.17
2023-05-08T07:29:59.524Z,17.55
2023-05-08T07:33:01.943Z,18.24
2023-05-08T07:36:10.622Z,22.34
2023-05-08T07:39:14.746Z,21.88
2023-05-08T07:42:22.752Z,23.55
2023-05-08T07:45:25.752Z,24.94
2023-05-08T07:48:28.758Z,23.84
2023-05-08T07:54:37.015Z,23.91
2023-05-08T07:57:42.973Z,24.96
2023-05-08T08:00:45.740Z,24.65
2023-05-08T08:03:48.928Z,24.51
2023-05-08T08:06:53.949Z,23.47
2023-05-08T08:09:57.874Z,21.80
2023-05-08T08:13:02.461Z,18.51
2023-05-08T08:16:06.048Z,18.09
2023-05-08T08:19:08.634Z,17.94
2023-05-08T08:22:13.411Z,17.08
2023-05-08T08:25:20.950Z,16.97
2023-05-08T08:28:23.557Z,16.43
2023-05-08T08:31:27.429Z,16.58
2023-05-08T08:34:32.933Z,16.89
2023-05-08T08:37:38.008Z,16.64
2023-05-08T08:40:43.396Z,15.98
2023-05-08T08:43:46.636Z,15.71
2023-05-08T08:46:51.523Z,16.11
2023-05-08T08:49:59.935Z,16.42
2023-05-08T08:53:08.570Z,16.43
2023-05-08T08:56:13.211Z,16.64
2023-05-08T08:59:21.911Z,16.80
2023-05-08T09:02:26.902Z,16.65
2023-05-08T09:05:34.411Z,16.71
2023-05-08T09:08:38.571Z,16.44
2023-05-08T09:11:43.776Z,16.80
2023-05-08T09:14:46.299Z,16.68
2023-05-08T09:17:48.789Z,16.68
2023-05-08T09:20:52.340Z,17.35
2023-05-08T09:23:56.887Z,17.69
2023-05-08T09:27:00.704Z,16.79
2023-05-08T09:30:09.916Z,16.78
2023-05-08T09:33:14.881Z,17.01
2023-05-08T09:36:35.667Z,16.75
2023-05-08T09:39:44.700Z,17.42
2023-05-08T09:54:34.065Z,17.28
2023-05-08T09:57:56.193Z,17.52
2023-05-08T10:01:07.558Z,17.73
2023-05-08T10:04:15.164Z,18.10
2023-05-08T10:07:41.857Z,18.17
2023-05-08T10:10:45.021Z,18.31
2023-05-08T10:13:51.680Z,18.67
2023-05-08T10:16:55.172Z,18.46
2023-05-08T10:20:06.598Z,18.30
2023-05-08T10:23:15.736Z,18.41
2023-05-08T10:26:26.506Z,18.46
2023-05-08T10:29:41.830Z,18.62
2023-05-08T10:32:50.134Z,18.85
2023-05-08T10:35:59.048Z,18.84
2023-05-08T10:39:02.446Z,18.83
2023-05-08T10:42:07.074Z,18.68
2023-05-08T10:45:15.231Z,18.96
2023-05-08T10:48:26.295Z,19.25
2023-05-08T10:51:54.575Z,19.42
2023-05-08T10:54:59.037Z,19.51
2023-05-08T10:58:07.312Z,19.45
2023-05-08T11:01:11.299Z,19.09
2023-05-08T11:04:23.763Z,18.92
2023-05-08T11:07:51.981Z,19.16
2023-05-08T11:11:06.235Z,19.23
2023-05-08T11:14:09.179Z,19.51
2023-05-08T11:17:11.978Z,19.57
2023-05-08T11:20:15.140Z,20.16
2023-05-08T11:23:25.428Z,20.38
2023-05-08T11:26:46.641Z,20.64
2023-05-08T11:30:14.968Z,20.20
2023-05-08T11:33:21.300Z,20.63
2023-05-08T11:36:26.048Z,20.73
2023-05-08T11:39:28.127Z,20.12
2023-05-08T11:42:30.264Z,20.15
2023-05-08T11:45:34.094Z,20.44
2023-05-08T11:48:36.838Z,20.15
2023-05-08T11:51:46.282Z,20.26
2023-05-08T11:54:49.682Z,20.56
2023-05-08T11:57:55.508Z,20.27
2023-05-08T12:01:01.961Z,20.75
2023-05-08T12:04:10.567Z,21.12
2023-05-08T12:07:13.212Z,20.93
2023-05-08T12:10:16.686Z,21.10
2023-05-08T12:13:32.216Z,21.03
2023-05-08T12:16:43.279Z,21.14
2023-05-08T12:19:47.087Z,20.00
2023-05-08T12:22:53.081Z,20.32
2023-05-08T12:26:01.350Z,20.81
2023-05-08T12:29:18.071Z,21.15
2023-05-08T12:32:21.190Z,20.85
2023-05-08T12:35:25.217Z,20.35
2023-05-08T12:38:28.496Z,20.43
2023-05-08T12:41:32.895Z,20.65
2023-05-08T12:44:36.430Z,20.72
2023-05-08T12:47:44.376Z,20.60
2023-05-08T12:50:53.547Z,20.04
2023-05-08T12:53:57.131Z,20.33
2023-05-08T12:56:59.572Z,20.35
2023-05-08T13:00:06.653Z,20.48
2023-05-08T13:03:11.536Z,20.63
2023-05-08T13:06:21.700Z,20.53
2023-05-08T13:09:25.981Z,20.65
2023-05-08T13:12:40.437Z,20.28
2023-05-08T13:15:43.085Z,20.39
2023-05-08T13:18:48.372Z,20.54
2023-05-08T13:21:54.166Z,20.74
2023-05-08T13:24:56.380Z,20.76
2023-05-08T13:27:59.409Z,20.34
2023-05-08T13:31:02.187Z,20.46
2023-05-08T13:34:06.210Z,20.46
2023-05-08T13:37:09.842Z,20.38
2023-05-08T13:40:12.933Z,20.27
2023-05-08T13:43:15.461Z,20.31
2023-05-08T13:46:18.317Z,20.08
2023-05-08T13:49:24.884Z,20.44
2023-05-08T13:52:31.129Z,20.09
2023-05-08T13:55:33.559Z,20.18
2023-05-08T13:58:37.882Z,20.18
2023-05-08T14:01:45.260Z,20.12
2023-05-08T14:04:51.864Z,19.91
2023-05-08T14:07:57.658Z,19.97
2023-05-08T14:11:03.884Z,19.94
2023-05-08T14:14:09.872Z,19.67
2023-05-08T14:17:13.431Z,19.85
2023-05-08T14:20:16.321Z,19.90
2023-05-08T14:23:20.586Z,19.96
2023-05-08T14:26:26.592Z,19.99
2023-05-08T14:29:29.915Z,20.15
2023-05-08T14:32:32.441Z,20.00
2023-05-08T14:35:38.975Z,19.81
2023-05-08T14:38:43.948Z,19.59
2023-05-08T14:41:59.772Z,19.76
2023-05-08T14:45:11.454Z,19.54
2023-05-08T14:48:17.022Z,19.22
2023-05-08T14:51:22.912Z,19.35
2023-05-08T14:54:30.729Z,19.47
2023-05-08T14:57:34.802Z,19.35
2023-05-08T15:00:40.952Z,19.64
2023-05-08T15:03:44.405Z,19.43
2023-05-08T15:06:48.990Z,19.45
2023-05-08T15:09:53.762Z,19.50
2023-05-08T15:12:58.407Z,19.54
2023-05-08T15:16:02.887Z,19.46
2023-05-08T15:19:09.876Z,19.45
2023-05-08T15:22:14.240Z,19.27
2023-05-08T15:25:19.175Z,19.33
2023-05-08T15:28:23.506Z,19.40
2023-05-08T15:31:29.794Z,19.42
2023-05-08T15:34:33.063Z,19.46
2023-05-08T15:37:37.475Z,19.31
2023-05-08T15:40:41.195Z,19.09
2023-05-08T15:43:45.614Z,18.85
2023-05-08T15:46:52.090Z,18.88
2023-05-08T15:50:01.629Z,18.73
2023-05-08T15:53:06.026Z,18.61
2023-05-08T15:56:09.223Z,18.42
2023-05-08T15:59:12.033Z,18.52
2023-05-08T16:02:15.731Z,18.57
2023-05-08T16:05:22.462Z,18.62
2023-05-08T16:08:31.764Z,18.53
2023-05-08T16:11:38.052Z,18.64
2023-05-08T16:14:41.245Z,18.82
2023-05-08T16:17:46.386Z,18.77
2023-05-08T16:20:49.688Z,18.64
2023-05-08T16:23:54.243Z,18.46
2023-05-08T16:26:56.468Z,18.60
2023-05-08T16:29:58.789Z,18.39
2023-05-08T16:33:07.496Z,18.11
2023-05-08T16:36:11.726Z,18.01
2023-05-08T16:39:15.119Z,17.96
2023-05-08T16:42:22.293Z,17.70
2023-05-08T16:45:26.449Z,17.64
2023-05-08T16:48:33.101Z,17.56
2023-05-08T16:51:39.364Z,17.46
2023-05-08T16:54:43.384Z,17.16
2023-05-08T16:57:46.667Z,16.98
2023-05-08T17:00:52.367Z,16.87
2023-05-08T17:03:55.571Z,16.55
2023-05-08T17:07:00.764Z,16.33
2023-05-08T17:10:07.043Z,16.29
2023-05-08T17:13:11.111Z,16.08
2023-05-08T17:16:13.413Z,16.02
2023-05-08T17:19:18.063Z,15.84
2023-05-08T17:22:21.045Z,15.74
2023-05-08T17:25:29.784Z,15.64
2023-05-08T17:28:32.477Z,15.53
2023-05-08T17:31:39.270Z,15.43
2023-05-08T17:34:52.203Z,15.35
2023-05-08T17:37:58.463Z,15.11
2023-05-08T17:41:01.124Z,15.01
2023-05-08T17:44:04.914Z,14.79
2023-05-08T17:47:09.599Z,14.56
2023-05-08T17:50:14.215Z,14.43
2023-05-08T17:53:21.172Z,14.30
2023-05-08T17:56:24.499Z,14.17
2023-05-08T17:59:28.582Z,14.07
2023-05-08T18:02:32.682Z,13.97
2023-05-08T18:05:35.287Z,13.83
2023-05-08T18:08:42.208Z,13.74
2023-05-08T18:11:45.253Z,13.64
2023-05-08T18:14:52.871Z,13.40
2023-05-08T18:17:56.726Z,13.34
2023-05-08T18:21:06.241Z,13.22
2023-05-08T18:24:13.411Z,13.22
2023-05-08T18:27:16.324Z,13.08
2023-05-08T18:30:19.527Z,12.94
2023-05-08T18:33:21.849Z,12.83
2023-05-08T18:36:29.266Z,12.78
2023-05-08T18:39:31.429Z,12.73
2023-05-08T18:42:42.951Z,12.73
2023-05-08T18:45:54.131Z,12.66
2023-05-08T18:48:57.735Z,12.50
2023-05-08T18:52:01.600Z,12.49
2023-05-08T18:55:04.765Z,12.41
2023-05-08T18:58:07.978Z,12.36
2023-05-08T19:01:11.306Z,12.30
2023-05-08T19:04:15.263Z,12.27
2023-05-08T19:07:21.345Z,12.22
2023-05-08T19:10:24.186Z,12.05
2023-05-08T19:13:27.976Z,11.99
2023-05-08T19:16:32.450Z,11.92
2023-05-08T19:19:36.361Z,11.88
2023-05-08T19:22:39.866Z,11.83
2023-05-08T19:25:43.055Z,11.79
2023-05-08T19:28:48.898Z,11.79
2023-05-08T19:31:52.936Z,11.63
2023-05-08T19:34:57.837Z,11.56
2023-05-08T19:38:01.279Z,11.52
2023-05-08T19:41:04.354Z,11.52
2023-05-08T19:44:07.243Z,11.51
2023-05-08T19:47:10.379Z,11.36
2023-05-08T19:50:18.341Z,11.33
2023-05-08T19:53:21.333Z,11.29
2023-05-08T19:56:24.725Z,11.28
2023-05-08T19:59:27.289Z,11.23
2023-05-08T20:02:30.505Z,11.23
2023-05-08T20:05:33.097Z,11.11
2023-05-08T20:08:36.297Z,11.12
2023-05-08T20:11:38.910Z,11.18
2023-05-08T20:14:41.628Z,11.16
2023-05-08T20:17:44.540Z,11.10
2023-05-08T20:20:47.367Z,11.10
2023-05-08T20:23:50.481Z,11.06
2023-05-08T20:26:54.539Z,10.94
2023-05-08T20:29:57.089Z,10.96
2023-05-08T20:33:05.148Z,11.00
2023-05-08T20:36:08.468Z,10.90
2023-05-08T20:39:11.991Z,10.82
2023-05-08T20:42:15.057Z,10.80
2023-05-08T20:45:18.784Z,10.76
2023-05-08T20:48:21.416Z,10.76
2023-05-08T20:51:24.921Z,10.73
2023-05-08T20:54:29.497Z,10.61
2023-05-08T20:57:32.430Z,10.52
2023-05-08T21:00:36.094Z,10.55
2023-05-08T21:03:39.262Z,10.53
2023-05-08T21:06:42.678Z,10.44
2023-05-08T21:09:46.147Z,10.48
2023-05-08T21:12:51.462Z,10.47
2023-05-08T21:15:54.823Z,10.38
2023-05-08T21:18:58.464Z,10.44
2023-05-08T21:22:02.041Z,10.34
2023-05-08T21:25:09.436Z,10.32
2023-05-08T21:28:12.988Z,10.33
2023-05-08T21:31:17.881Z,10.30
2023-05-08T21:34:22.992Z,10.25
2023-05-08T21:37:25.888Z,10.21
2023-05-08T21:40:32.052Z,10.23
2023-05-08T21:43:39.339Z,10.19
2023-05-08T21:46:43.020Z,10.21
2023-05-08T21:49:47.397Z,10.18
2023-05-08T21:52:51.586Z,10.18
2023-05-08T21:55:55.203Z,10.10
2023-05-08T21:58:58.115Z,10.12
2023-05-08T22:02:06.509Z,10.04
2023-05-08T22:05:09.196Z,9.99
2023-05-08T22:08:13.102Z,10.04
2023-05-08T22:11:16.900Z,10.00
2023-05-08T22:14:20.087Z,10.01
2023-05-08T22:17:24.709Z,10.01
2023-05-08T22:20:28.123Z,9.93
2023-05-08T22:23:34.176Z,9.91
2023-05-08T22:26:37.060Z,9.91
2023-05-08T22:29:40.098Z,9.93
2023-05-08T22:32:44.602Z,9.94
2023-05-08T22:35:48.113Z,9.80
2023-05-08T22:38:52.827Z,9.84
2023-05-08T22:41:56.019Z,9.85
2023-05-08T22:44:58.731Z,9.79
2023-05-08T22:48:01.677Z,9.80
2023-05-08T22:51:06.355Z,9.75
2023-05-08T22:54:09.457Z,9.74
2023-05-08T22:57:13.607Z,9.66
2023-05-08T23:00:17.207Z,9.61
2023-05-08T23:03:20.718Z,9.60
2023-05-08T23:06:23.701Z,9.70
2023-05-08T23:09:31.643Z,9.59
2023-05-08T23:12:35.036Z,9.52
2023-05-08T23:15:39.760Z,9.43
2023-05-08T23:18:42.504Z,9.45
2023-05-08T23:21:45.368Z,9.46
2023-05-08T23:24:48.530Z,9.36
2023-05-08T23:27:51.590Z,9.31
2023-05-08T23:30:54.792Z,9.23
2023-05-08T23:33:57.770Z,9.21
2023-05-08T23:37:03.547Z,9.21
2023-05-08T23:40:07.838Z,9.22
2023-05-08T23:43:11.757Z,9.20
2023-05-08T23:46:17.516Z,9.17
2023-05-08T23:49:22.185Z,9.19
2023-05-08T23:52:26.551Z,9.14
2023-05-08T23:55:31.086Z,9.11
2023-05-08T23:58:34.173Z,9.12
